Time;durP1;ratioP1;P1;durP2;ratioP2;P2;SDS_P1;SDS_P2;PMS_P1;PMS_P2;Temp;Humidity;BMP_temperature;BMP_pressure;BME280_temperature;BME280_humidity;BME280_pressure;Samples;Min_cycle;Max_cycle;Signal;HPM_P1;HPM_P2
2022/01/16 00:00:40;;;;;;;43.75;25.75;;;0.80;99.90;;;;;;5043558;28;20113;-85
2022/01/16 00:05:52;;;;;;;43.22;25.35;;;0.80;99.90;;;;;;5043669;28;20213;-84
2022/01/16 00:08:17;;;;;;;40.17;24.00;;;0.80;99.90;;;;;;5042940;28;20104;-84
2022/01/16 00:10:43;;;;;;;39.83;24.30;;;0.90;99.90;;;;;;5043540;28;20014;-85
2022/01/16 00:13:09;;;;;;;39.10;24.25;;;0.90;99.90;;;;;;5043390;28;20159;-85
2022/01/16 00:15:34;;;;;;;40.72;23.77;;;0.90;99.90;;;;;;5042950;28;20203;-85
2022/01/16 00:18:19;;;;;;;38.42;24.95;;;1.00;99.90;;;;;;5042026;28;20021;-85
2022/01/16 00:20:44;;;;;;;;;;;1.00;99.90;;;;;;5043556;28;20022;-85
2022/01/16 00:23:10;;;;;;;34.33;22.52;;;1.00;99.90;;;;;;5058536;28;19924;-85
2022/01/16 00:25:36;;;;;;;31.52;20.63;;;1.00;99.90;;;;;;5042171;28;20021;-85
2022/01/16 00:28:02;;;;;;;32.47;21.52;;;1.00;99.90;;;;;;5043180;28;20018;-85
2022/01/16 00:30:28;;;;;;;37.35;22.70;;;0.90;99.90;;;;;;5043041;28;20029;-85
2022/01/16 00:32:59;;;;;;;35.28;22.83;;;1.00;99.90;;;;;;5042639;28;20022;-85
2022/01/16 00:35:25;;;;;;;33.47;22.17;;;0.90;99.90;;;;;;5042478;28;20053;-85
2022/01/16 00:37:52;;;;;;;30.70;21.73;;;0.90;99.90;;;;;;5041064;28;20037;-85
2022/01/16 00:40:18;;;;;;;33.15;22.65;;;0.90;99.90;;;;;;5037471;28;20092;-85
2022/01/16 00:42:44;;;;;;;34.22;21.98;;;0.80;99.90;;;;;;5043096;28;20013;-85
2022/01/16 00:45:10;;;;;;;40.85;24.27;;;0.90;99.90;;;;;;5038180;28;20370;-85
2022/01/16 00:47:36;;;;;;;39.67;23.52;;;0.90;99.90;;;;;;5040829;28;20029;-85
2022/01/16 00:50:02;;;;;;;37.40;24.25;;;0.90;99.90;;;;;;5041363;28;20028;-85
2022/01/16 00:52:28;;;;;;;40.58;25.08;;;0.80;99.90;;;;;;5042270;28;20346;-85
2022/01/16 00:54:55;;;;;;;36.10;23.83;;;0.90;99.90;;;;;;5042267;28;20018;-85
2022/01/16 00:57:20;;;;;;;40.20;25.08;;;0.90;99.90;;;;;;5042658;28;20355;-85
2022/01/16 00:59:48;;;;;;;36.75;23.67;;;0.90;99.90;;;;;;5042668;28;20013;-85
2022/01/16 01:02:13;;;;;;;35.50;23.08;;;0.90;99.90;;;;;;5042452;28;20025;-85
2022/01/16 01:04:39;;;;;;;37.17;24.17;;;0.90;99.90;;;;;;5040869;28;20087;-84
2022/01/16 01:07:05;;;;;;;34.47;23.88;;;0.90;99.90;;;;;;5042526;28;20244;-84
2022/01/16 01:09:30;;;;;;;38.88;24.73;;;0.80;99.90;;;;;;5042045;28;20052;-85
2022/01/16 01:11:56;;;;;;;41.17;26.77;;;0.80;99.90;;;;;;5040966;28;20032;-85
2022/01/16 01:14:37;;;;;;;40.72;25.60;;;0.70;99.90;;;;;;5042168;28;20083;-85
2022/01/16 01:17:04;;;;;;;131.57;30.13;;;0.70;99.90;;;;;;5042658;28;20029;-85
2022/01/16 01:19:34;;;;;;;49.20;30.17;;;0.70;99.90;;;;;;5042043;28;20017;-85
2022/01/16 01:22:01;;;;;;;43.75;27.63;;;0.70;99.90;;;;;;5041381;28;20017;-85
2022/01/16 01:24:29;;;;;;;45.50;28.05;;;0.70;99.90;;;;;;5040728;28;20045;-85
2022/01/16 01:27:21;;;;;;;45.88;28.02;;;0.70;99.90;;;;;;5041810;28;20020;-85
2022/01/16 01:29:54;;;;;;;47.40;31.02;;;0.70;99.90;;;;;;5041675;28;20044;-85
2022/01/16 01:32:20;;;;;;;47.03;30.40;;;0.60;99.90;;;;;;5040604;28;20036;-85
2022/01/16 01:34:46;;;;;;;47.65;29.52;;;0.60;99.90;;;;;;5040343;28;20045;-85
2022/01/16 01:37:12;;;;;;;47.40;30.00;;;0.60;99.90;;;;;;5041788;28;20041;-85
2022/01/16 01:39:38;;;;;;;46.63;27.58;;;0.70;99.90;;;;;;5041663;28;20021;-85
2022/01/16 01:42:08;;;;;;;42.65;27.35;;;0.60;99.90;;;;;;5040958;28;20026;-85
2022/01/16 01:52:50;;;;;;;40.17;26.38;;;0.50;99.90;;;;;;5041461;28;20025;-85
2022/01/16 01:55:16;;;;;;;42.47;27.25;;;0.50;99.90;;;;;;5041672;28;20025;-85
2022/01/16 01:57:42;;;;;;;40.58;25.98;;;0.50;99.90;;;;;;5040733;28;20021;-85
2022/01/16 02:00:08;;;;;;;40.88;25.65;;;0.50;99.90;;;;;;5039747;28;20099;-85
2022/01/16 02:02:46;;;;;;;41.72;26.40;;;0.50;99.90;;;;;;5041234;28;20296;-85
2022/01/16 02:05:11;;;;;;;41.22;25.85;;;0.50;99.90;;;;;;5040582;28;20080;-85
2022/01/16 02:07:37;;;;;;;40.20;25.65;;;0.50;99.90;;;;;;5038617;28;20316;-85
2022/01/16 02:10:04;;;;;;;39.75;24.58;;;0.40;99.90;;;;;;5040791;28;20188;-85
2022/01/16 02:12:30;;;;;;;39.50;25.08;;;0.40;99.90;;;;;;5040869;28;20022;-85
2022/01/16 02:15:17;;;;;;;41.25;24.67;;;0.40;99.90;;;;;;5041100;28;20025;-85
2022/01/16 02:29:01;;;;;;;39.47;25.95;;;0.40;99.90;;;;;;5041192;28;20453;-86
2022/01/16 02:31:28;;;;;;;41.95;26.48;;;0.40;99.90;;;;;;5039060;28;20021;-85
2022/01/16 02:34:31;;;;;;;39.15;25.55;;;0.40;99.90;;;;;;5041026;28;20037;-85
2022/01/16 02:36:49;;;;;;;39.83;24.95;;;0.40;99.90;;;;;;5040678;28;20037;-85
2022/01/16 02:39:16;;;;;;;39.72;24.50;;;0.40;99.90;;;;;;5041129;28;20013;-85
2022/01/16 02:41:44;;;;;;;41.10;25.00;;;0.40;99.90;;;;;;5039777;28;20055;-85
2022/01/16 02:44:41;;;;;;;39.15;25.52;;;0.40;99.90;;;;;;5039993;28;20032;-85
2022/01/16 02:46:59;;;;;;;38.13;25.35;;;0.40;99.90;;;;;;5040676;28;20141;-84
2022/01/16 02:49:34;;;;;;;43.25;27.25;;;0.40;99.90;;;;;;5040691;28;20017;-85
2022/01/16 02:52:06;;;;;;;41.22;26.58;;;0.40;99.90;;;;;;5040611;28;20356;-85
2022/01/16 02:54:36;;;;;;;41.90;26.27;;;0.40;99.90;;;;;;5040892;28;20222;-84
2022/01/16 02:57:07;;;;;;;41.55;27.38;;;0.40;99.90;;;;;;5039431;28;20409;-85
2022/01/16 02:59:33;;;;;;;38.38;25.90;;;0.30;99.90;;;;;;5040290;28;20080;-85
2022/01/16 03:02:02;;;;;;;44.63;27.20;;;0.30;99.90;;;;;;5039362;28;20033;-84
2022/01/16 03:04:29;;;;;;;44.55;27.00;;;0.30;99.90;;;;;;5040311;28;20017;-85
2022/01/16 03:06:58;;;;;;;43.42;25.48;;;0.30;99.90;;;;;;5039372;28;20033;-85
2022/01/16 03:09:24;;;;;;;39.65;25.05;;;0.20;99.90;;;;;;5040599;28;20029;-85
2022/01/16 03:11:50;;;;;;;45.10;25.90;;;0.20;99.90;;;;;;5035545;28;20466;-85
2022/01/16 03:14:21;;;;;;;42.08;25.60;;;0.20;99.90;;;;;;5043773;28;20017;-85
2022/01/16 03:16:50;;;;;;;45.08;26.60;;;0.20;99.90;;;;;;5044275;28;20347;-85
2022/01/16 03:22:05;;;;;;;41.00;26.10;;;0.20;99.90;;;;;;5043579;28;20028;-85
2022/01/16 03:24:36;;;;;;;39.95;25.77;;;0.20;99.90;;;;;;5044839;28;20026;-85
2022/01/16 03:27:06;;;;;;;42.60;26.25;;;0.10;99.90;;;;;;5042583;28;20037;-85
2022/01/16 03:29:32;;;;;;;39.00;25.17;;;0.10;99.90;;;;;;5043887;28;20021;-84
2022/01/16 03:31:59;;;;;;;40.50;27.00;;;0.10;99.90;;;;;;5043133;28;20367;-85
2022/01/16 03:34:26;;;;;;;41.40;25.65;;;0.20;99.90;;;;;;5037708;28;20053;-85
2022/01/16 03:36:51;;;;;;;42.55;26.50;;;0.20;99.90;;;;;;5042159;28;20037;-85
2022/01/16 03:39:17;;;;;;;44.75;27.70;;;0.20;99.90;;;;;;5043835;28;20017;-84
2022/01/16 03:41:44;;;;;;;42.83;28.52;;;0.30;99.90;;;;;;5043904;28;20205;-84
2022/01/16 03:44:09;;;;;;;41.53;28.00;;;0.40;99.90;;;;;;5042992;28;20045;-84
2022/01/16 03:46:38;;;;;;;46.42;27.90;;;0.50;99.90;;;;;;5042928;28;20017;-85
2022/01/16 03:49:06;;;;;;;43.88;27.30;;;0.50;99.90;;;;;;5042256;28;20332;-85
2022/01/16 03:51:33;;;;;;;38.60;25.63;;;0.60;99.90;;;;;;5042958;28;20072;-84
2022/01/16 03:53:58;;;;;;;40.83;26.77;;;0.60;99.90;;;;;;5039499;28;20343;-84
2022/01/16 03:56:24;;;;;;;39.53;25.27;;;0.70;99.90;;;;;;5042864;28;20029;-84
2022/01/16 03:58:50;;;;;;;40.83;25.67;;;0.80;99.90;;;;;;5042809;28;20250;-85
2022/01/16 04:01:16;;;;;;;41.95;26.50;;;0.80;99.90;;;;;;5041939;28;20037;-85
2022/01/16 04:03:41;;;;;;;40.65;25.40;;;0.90;99.90;;;;;;5043397;28;20025;-84
2022/01/16 04:06:07;;;;;;;39.40;26.00;;;0.80;99.90;;;;;;5036445;28;20018;-85
2022/01/16 04:08:33;;;;;;;41.05;24.63;;;0.80;99.90;;;;;;5042923;28;20088;-85
2022/01/16 04:11:00;;;;;;;38.70;25.20;;;0.90;99.90;;;;;;5042181;28;20076;-85
2022/01/16 04:13:25;;;;;;;40.13;24.73;;;0.90;99.90;;;;;;5042068;28;20029;-84
2022/01/16 04:15:51;;;;;;;38.72;25.23;;;0.90;99.90;;;;;;5043121;28;20233;-85
2022/01/16 04:18:17;;;;;;;39.47;25.88;;;0.90;99.90;;;;;;5043019;28;20021;-85
2022/01/16 04:20:42;;;;;;;39.63;24.48;;;0.90;99.90;;;;;;5039216;28;20087;-84
2022/01/16 04:23:10;;;;;;;39.28;25.40;;;0.90;99.90;;;;;;5041824;28;20025;-85
2022/01/16 04:25:37;;;;;;;39.15;24.83;;;0.90;99.90;;;;;;5042793;28;20028;-85
2022/01/16 04:28:04;;;;;;;37.65;24.15;;;1.00;99.90;;;;;;5042363;28;20221;-85
2022/01/16 04:30:30;;;;;;;33.88;22.95;;;1.00;99.90;;;;;;5038549;28;20033;-84
2022/01/16 04:32:55;;;;;;;36.17;23.85;;;1.00;99.90;;;;;;5041168;28;20017;-85
2022/01/16 04:35:21;;;;;;;41.35;25.98;;;1.00;99.90;;;;;;5042920;28;20360;-85
2022/01/16 04:37:47;;;;;;;36.65;25.05;;;1.00;99.90;;;;;;5040820;28;20357;-84
2022/01/16 04:40:15;;;;;;;37.85;24.98;;;1.00;99.90;;;;;;5040135;28;20047;-84
2022/01/16 04:45:25;;;;;;;42.22;27.60;;;1.10;99.90;;;;;;5038718;28;20063;-85
2022/01/16 04:47:51;;;;;;;39.22;25.10;;;1.20;99.90;;;;;;5039299;28;20038;-84
2022/01/16 04:50:17;;;;;;;39.55;25.88;;;1.20;99.90;;;;;;5040201;28;20022;-84
2022/01/16 04:52:45;;;;;;;40.95;26.33;;;1.20;99.90;;;;;;5040019;28;20026;-85
2022/01/16 04:55:13;;;;;;;39.63;26.48;;;1.20;99.90;;;;;;5040577;28;20025;-85
2022/01/16 04:57:39;;;;;;;39.40;25.00;;;1.30;99.90;;;;;;5042717;28;20063;-85
2022/01/16 05:00:14;;;;;;;39.28;24.83;;;1.30;99.90;;;;;;5041014;28;20244;-85
2022/01/16 05:02:40;;;;;;;36.17;23.45;;;1.40;99.90;;;;;;5040721;28;20033;-85
2022/01/16 05:05:06;;;;;;;36.45;25.10;;;1.40;99.90;;;;;;5041767;28;20336;-85
2022/01/16 05:07:32;;;;;;;38.55;24.40;;;1.40;99.90;;;;;;5040678;28;20025;-85
2022/01/16 05:09:57;;;;;;;36.72;23.30;;;1.50;99.90;;;;;;5042518;28;20040;-85
2022/01/16 05:12:35;;;;;;;38.67;24.15;;;1.50;99.90;;;;;;5042190;28;20021;-85
2022/01/16 05:18:01;;;;;;;37.45;24.42;;;1.60;99.90;;;;;;5019435;28;20254;-85
2022/01/16 05:20:27;;;;;;;34.55;23.83;;;1.70;99.90;;;;;;5042176;28;20017;-85
2022/01/16 05:22:52;;;;;;;34.45;22.73;;;1.80;99.90;;;;;;5040799;28;20087;-84
2022/01/16 05:25:18;;;;;;;33.67;23.77;;;1.70;99.90;;;;;;5040231;28;20022;-84
2022/01/16 05:27:44;;;;;;;37.03;23.70;;;1.80;99.90;;;;;;5042095;28;20024;-85
2022/01/16 05:30:11;;;;;;;35.50;23.15;;;1.80;99.90;;;;;;5041660;28;20017;-84
2022/01/16 05:32:37;;;;;;;35.60;23.00;;;1.80;99.90;;;;;;5040741;28;20225;-84
2022/01/16 05:35:03;;;;;;;35.22;22.98;;;1.70;99.90;;;;;;5040992;28;20042;-85
2022/01/16 05:37:29;;;;;;;36.78;23.08;;;1.80;99.90;;;;;;5040289;28;20096;-85
2022/01/16 05:39:55;;;;;;;35.40;23.27;;;1.90;99.90;;;;;;5041819;28;20020;-85
2022/01/16 05:42:21;;;;;;;31.63;21.90;;;1.80;99.90;;;;;;5041285;28;20055;-84
2022/01/16 05:44:46;;;;;;;33.70;22.25;;;1.80;99.90;;;;;;5041123;28;20017;-84
2022/01/16 05:47:13;;;;;;;32.10;22.10;;;1.80;99.90;;;;;;5040940;28;20027;-85
2022/01/16 05:49:41;;;;;;;32.30;22.20;;;1.80;99.90;;;;;;5041078;28;20379;-85
2022/01/16 05:52:07;;;;;;;31.77;21.20;;;1.80;99.90;;;;;;5039787;28;20093;-85
2022/01/16 05:54:33;;;;;;;30.10;21.02;;;1.90;99.90;;;;;;5041669;28;20028;-84
2022/01/16 05:56:59;;;;;;;34.78;22.55;;;1.80;99.90;;;;;;5041560;28;20029;-84
2022/01/16 05:59:25;;;;;;;38.13;23.88;;;1.80;99.90;;;;;;5040723;28;20055;-85
2022/01/16 06:01:50;;;;;;;33.45;21.27;;;1.80;99.90;;;;;;5041050;28;20033;-85
2022/01/16 06:04:16;;;;;;;32.22;21.92;;;1.70;99.90;;;;;;5040866;28;20353;-85
2022/01/16 06:06:42;;;;;;;32.75;22.70;;;1.70;99.90;;;;;;5038722;28;20310;-85
2022/01/16 06:09:08;;;;;;;33.03;22.45;;;1.70;99.90;;;;;;5034080;28;20028;-85
2022/01/16 06:11:33;;;;;;;29.00;20.42;;;1.60;99.90;;;;;;5041185;28;20325;-85
2022/01/16 06:13:59;;;;;;;35.00;22.83;;;1.60;99.90;;;;;;5039636;28;20198;-84
2022/01/16 06:16:24;;;;;;;32.95;21.75;;;1.60;99.90;;;;;;5039964;28;20040;-85
2022/01/16 06:18:51;;;;;;;35.10;22.55;;;1.50;99.90;;;;;;5040323;28;20014;-85
2022/01/16 06:21:17;;;;;;;35.47;22.85;;;1.50;99.90;;;;;;5040011;28;20025;-85
2022/01/16 06:23:43;;;;;;;33.15;21.50;;;1.50;99.90;;;;;;5040378;28;20025;-84
2022/01/16 06:26:09;;;;;;;33.53;22.73;;;1.50;99.90;;;;;;5040333;28;20063;-84
2022/01/16 06:28:34;;;;;;;34.08;21.88;;;1.50;99.90;;;;;;5040540;28;20100;-84
2022/01/16 06:31:02;;;;;;;34.47;22.00;;;1.50;99.90;;;;;;5036257;28;20036;-85
2022/01/16 06:33:28;;;;;;;32.40;20.80;;;1.50;99.90;;;;;;5040138;28;20049;-84
2022/01/16 06:35:53;;;;;;;32.60;20.65;;;1.50;99.90;;;;;;5040578;28;20041;-84
2022/01/16 06:38:19;;;;;;;33.20;21.73;;;1.40;99.90;;;;;;5040946;28;20294;-85
2022/01/16 06:40:45;;;;;;;33.03;21.63;;;1.40;99.90;;;;;;5041423;28;20206;-85
2022/01/16 06:43:11;;;;;;;33.67;21.00;;;1.40;99.90;;;;;;5037576;28;20083;-85
2022/01/16 06:45:37;;;;;;;34.13;21.50;;;1.40;99.90;;;;;;5035566;28;20028;-85
2022/01/16 06:48:02;;;;;;;30.38;20.55;;;1.50;99.90;;;;;;5032819;28;20038;-84
2022/01/16 06:50:28;;;;;;;32.92;20.23;;;1.50;99.90;;;;;;5032952;28;20026;-84
2022/01/16 06:52:54;;;;;;;32.97;20.95;;;1.40;99.90;;;;;;5031018;28;20036;-84
2022/01/16 06:55:20;;;;;;;34.67;20.20;;;1.40;99.90;;;;;;5032814;28;20021;-85
2022/01/16 06:57:45;;;;;;;30.27;20.15;;;1.40;99.90;;;;;;5032951;28;20498;-85
2022/01/16 07:00:11;;;;;;;31.20;20.48;;;1.40;99.90;;;;;;5033008;28;20133;-85
2022/01/16 07:02:37;;;;;;;32.85;21.25;;;1.40;99.90;;;;;;5035778;28;20029;-85
2022/01/16 07:05:04;;;;;;;29.50;19.27;;;1.40;99.90;;;;;;5034457;28;20470;-85
2022/01/16 07:07:30;;;;;;;32.20;20.27;;;1.30;99.90;;;;;;5031787;28;20313;-84
2022/01/16 07:09:56;;;;;;;28.98;18.55;;;1.30;99.90;;;;;;5031606;28;20125;-85
2022/01/16 07:12:22;;;;;;;31.13;20.45;;;1.30;99.90;;;;;;5036480;28;20068;-85
2022/01/16 07:14:48;;;;;;;33.08;20.15;;;1.30;99.90;;;;;;5043588;28;20013;-85
2022/01/16 07:17:14;;;;;;;32.15;19.88;;;1.30;99.90;;;;;;5044076;28;20040;-84
2022/01/16 07:19:40;;;;;;;31.80;21.65;;;1.20;99.90;;;;;;5044119;28;20021;-85
2022/01/16 07:22:06;;;;;;;35.63;22.75;;;1.20;99.90;;;;;;5043898;28;20131;-85
2022/01/16 07:24:31;;;;;;;30.48;20.83;;;1.20;99.90;;;;;;5042456;28;20032;-85
2022/01/16 07:27:00;;;;;;;32.08;20.42;;;1.20;99.90;;;;;;5041833;28;20053;-85
2022/01/16 07:29:29;;;;;;;35.13;22.30;;;1.10;99.90;;;;;;5042446;28;20018;-85
2022/01/16 07:31:56;;;;;;;32.60;21.52;;;1.10;99.90;;;;;;5038794;28;20036;-85
2022/01/16 07:34:21;;;;;;;34.42;22.08;;;1.10;99.90;;;;;;5039298;28;20053;-89
2022/01/16 07:36:47;;;;;;;32.92;21.08;;;1.00;99.90;;;;;;5034862;28;20545;-86
2022/01/16 07:39:13;;;;;;;35.65;23.02;;;1.00;99.90;;;;;;5036804;28;20029;-86
2022/01/16 07:41:39;;;;;;;38.65;22.80;;;1.00;99.90;;;;;;5042559;28;20314;-85
2022/01/16 07:44:05;;;;;;;34.60;22.17;;;1.00;99.90;;;;;;5043340;28;20013;-86
2022/01/16 07:46:30;;;;;;;36.00;22.00;;;0.90;99.90;;;;;;5042274;28;20352;-86
2022/01/16 07:48:56;;;;;;;37.85;23.20;;;0.90;99.90;;;;;;5043381;28;20029;-86
2022/01/16 07:51:22;;;;;;;34.42;22.52;;;1.00;99.90;;;;;;5042065;28;20029;-85
2022/01/16 07:53:48;;;;;;;34.60;23.35;;;1.00;99.90;;;;;;5042799;28;20193;-86
2022/01/16 07:56:14;;;;;;;38.13;23.58;;;1.00;99.90;;;;;;5043635;28;20029;-86
2022/01/16 07:58:41;;;;;;;37.20;23.67;;;1.10;99.90;;;;;;5041121;28;20094;-86
2022/01/16 08:01:07;;;;;;;36.70;22.88;;;1.10;99.90;;;;;;5043147;28;20025;-86
2022/01/16 08:03:33;;;;;;;35.10;22.58;;;1.10;99.90;;;;;;5043105;28;20017;-86
2022/01/16 08:05:58;;;;;;;36.20;22.60;;;1.10;99.90;;;;;;5040200;28;20310;-86
2022/01/16 08:08:24;;;;;;;36.42;22.42;;;1.10;99.90;;;;;;5042046;28;20021;-86
2022/01/16 08:10:50;;;;;;;38.08;23.77;;;1.10;99.90;;;;;;5040874;28;20036;-86
2022/01/16 08:13:16;;;;;;;36.13;23.75;;;1.00;99.90;;;;;;5043342;28;20033;-86
2022/01/16 08:15:43;;;;;;;40.42;25.27;;;1.00;99.90;;;;;;5042885;28;20078;-85
2022/01/16 08:18:09;;;;;;;43.53;25.45;;;1.00;99.90;;;;;;5043250;28;20017;-86
2022/01/16 08:20:36;;;;;;;43.17;27.67;;;1.00;99.90;;;;;;5043072;28;20241;-86
2022/01/16 08:23:01;;;;;;;48.80;28.10;;;0.90;99.90;;;;;;5041296;28;20228;-86
2022/01/16 08:25:27;;;;;;;46.08;28.25;;;1.00;99.90;;;;;;5042746;28;20017;-86
2022/01/16 08:27:53;;;;;;;57.72;33.88;;;1.10;99.90;;;;;;5031010;28;20022;-85
2022/01/16 08:30:19;;;;;;;65.68;37.90;;;1.20;99.90;;;;;;5031811;28;20029;-86
2022/01/16 08:32:44;;;;;;;52.90;32.33;;;1.30;99.90;;;;;;5033660;28;20389;-86
2022/01/16 08:35:11;;;;;;;70.28;42.95;;;1.40;99.90;;;;;;5030027;28;20053;-86
2022/01/16 08:37:37;;;;;;;41.97;27.17;;;1.40;99.90;;;;;;5029475;28;20029;-85
2022/01/16 08:40:06;;;;;;;39.63;24.50;;;1.30;99.90;;;;;;5031440;28;20025;-86
2022/01/16 08:42:32;;;;;;;38.42;24.90;;;1.20;99.90;;;;;;5029978;28;20026;-86
2022/01/16 08:44:58;;;;;;;37.47;23.83;;;1.20;99.90;;;;;;5031500;28;20028;-86
2022/01/16 08:47:26;;;;;;;39.40;23.98;;;1.20;99.90;;;;;;5031465;28;20052;-86
2022/01/16 08:49:52;;;;;;;36.72;22.48;;;1.30;99.90;;;;;;5031585;28;20030;-86
2022/01/16 08:52:19;;;;;;;35.45;22.40;;;1.30;99.90;;;;;;5029635;28;20033;-86
2022/01/16 08:54:45;;;;;;;40.50;23.38;;;1.40;99.90;;;;;;5031425;28;20049;-86
2022/01/16 08:57:10;;;;;;;36.28;21.42;;;1.30;99.90;;;;;;5031097;28;20030;-86
2022/01/16 08:59:36;;;;;;;36.33;22.25;;;1.40;99.90;;;;;;5029714;28;20072;-86
2022/01/16 09:02:02;;;;;;;36.70;22.15;;;1.50;99.90;;;;;;5031346;28;20514;-86
2022/01/16 09:04:28;;;;;;;35.85;22.20;;;1.50;99.90;;;;;;5030015;28;20036;-86
2022/01/16 09:06:53;;;;;;;34.72;21.27;;;1.60;99.90;;;;;;5029450;28;20079;-86
2022/01/16 09:09:20;;;;;;;37.17;21.70;;;1.50;99.90;;;;;;5029562;28;20025;-86
2022/01/16 09:11:46;;;;;;;43.30;25.90;;;1.50;99.90;;;;;;5029800;28;20493;-86
2022/01/16 09:14:12;;;;;;;39.55;24.15;;;1.50;99.90;;;;;;5029459;28;20057;-86
2022/01/16 09:16:37;;;;;;;42.67;25.05;;;1.50;99.90;;;;;;5029473;28;20075;-86
2022/01/16 09:19:03;;;;;;;46.85;25.92;;;1.50;99.90;;;;;;5029354;28;20071;-86
2022/01/16 09:21:29;;;;;;;52.58;27.85;;;1.60;99.90;;;;;;5030628;28;20029;-86
2022/01/16 09:23:54;;;;;;;46.90;26.60;;;1.60;99.90;;;;;;5030891;28;20041;-86
2022/01/16 09:26:20;;;;;;;44.85;25.50;;;1.60;99.90;;;;;;5030761;28;20063;-83
2022/01/16 09:28:46;;;;;;;47.25;25.90;;;1.60;99.90;;;;;;5030887;28;20093;-83
2022/01/16 09:31:12;;;;;;;48.20;25.95;;;1.50;99.90;;;;;;5029456;28;20030;-86
2022/01/16 09:33:37;;;;;;;50.85;25.73;;;1.60;99.90;;;;;;5030480;28;20036;-86
2022/01/16 09:36:04;;;;;;;72.50;27.83;;;1.70;99.90;;;;;;5027965;28;20132;-86
2022/01/16 09:38:31;;;;;;;52.50;25.77;;;1.80;99.90;;;;;;5029101;28;20367;-87
2022/01/16 09:40:57;;;;;;;44.72;25.55;;;1.90;99.90;;;;;;5029070;28;20037;-87
2022/01/16 09:43:23;;;;;;;53.25;26.63;;;1.90;99.90;;;;;;5029493;28;20017;-86
2022/01/16 09:45:51;;;;;;;58.33;28.17;;;2.10;99.90;;;;;;5030670;28;20143;-87
2022/01/16 09:48:17;;;;;;;47.97;26.45;;;2.10;99.90;;;;;;5029721;28;20017;-87
2022/01/16 09:50:43;;;;;;;59.42;25.73;;;2.20;99.90;;;;;;5028544;28;20039;-87
2022/01/16 09:53:09;;;;;;;49.45;27.40;;;2.30;99.90;;;;;;5029080;28;20025;-87
2022/01/16 09:55:35;;;;;;;74.53;27.02;;;2.30;99.90;;;;;;5028798;28;20044;-87
2022/01/16 09:58:01;;;;;;;62.33;27.23;;;2.30;99.90;;;;;;5029027;28;20398;-87
2022/01/16 10:00:27;;;;;;;72.55;27.38;;;2.30;99.90;;;;;;5027330;28;20040;-87
2022/01/16 10:02:54;;;;;;;61.70;28.95;;;2.20;99.90;;;;;;5027149;28;20083;-87
2022/01/16 10:05:29;;;;;;;91.05;30.70;;;2.30;99.90;;;;;;5027351;28;20441;-87
2022/01/16 10:07:56;;;;;;;65.00;29.85;;;2.30;99.90;;;;;;5028308;28;20418;-87
2022/01/16 10:10:28;;;;;;;69.28;31.45;;;2.40;99.90;;;;;;5027136;28;20024;-87
2022/01/16 10:13:03;;;;;;;67.85;30.30;;;2.40;99.90;;;;;;5029557;28;20034;-86
2022/01/16 10:15:29;;;;;;;71.85;31.23;;;2.50;99.90;;;;;;5030017;28;20200;-87
2022/01/16 10:17:56;;;;;;;48.60;25.98;;;2.50;99.90;;;;;;5028730;28;20183;-86
2022/01/16 10:20:24;;;;;;;59.65;28.55;;;2.50;99.90;;;;;;5028685;28;20025;-87
2022/01/16 10:22:52;;;;;;;61.97;29.60;;;2.40;99.90;;;;;;5027822;28;20029;-87
2022/01/16 10:25:35;;;;;;;57.53;29.33;;;2.60;99.90;;;;;;5028555;28;20025;-87
2022/01/16 10:28:15;;;;;;;45.13;25.10;;;2.50;99.90;;;;;;5028878;28;20030;-87
2022/01/16 10:30:44;;;;;;;47.85;25.48;;;2.60;99.90;;;;;;5028735;28;20474;-87
2022/01/16 10:33:13;;;;;;;45.92;25.60;;;2.50;99.90;;;;;;5028420;28;20071;-86
2022/01/16 10:35:41;;;;;;;42.70;23.48;;;2.50;99.90;;;;;;5027852;28;20077;-88
2022/01/16 10:38:15;;;;;;;37.55;21.98;;;2.60;99.90;;;;;;5028372;28;20029;-87
2022/01/16 10:40:42;;;;;;;51.33;22.75;;;2.60;99.90;;;;;;5028529;28;20466;-88
2022/01/16 10:43:15;;;;;;;34.92;21.10;;;2.70;99.90;;;;;;5028564;28;20029;-87
2022/01/16 10:45:43;;;;;;;51.88;24.08;;;2.80;99.90;;;;;;5028566;28;20061;-87
2022/01/16 10:48:10;;;;;;;57.75;31.05;;;2.80;99.90;;;;;;5029917;28;20018;-88
2022/01/16 10:50:42;;;;;;;54.85;26.15;;;2.90;99.90;;;;;;5028631;28;20152;-87
2022/01/16 10:53:15;;;;;;;37.60;22.98;;;3.10;99.90;;;;;;5029721;28;20022;-87
2022/01/16 10:55:51;;;;;;;42.33;23.63;;;3.20;99.90;;;;;;5028226;28;20040;-88
2022/01/16 10:58:21;;;;;;;55.88;23.45;;;3.30;99.90;;;;;;5028541;28;20379;-87
2022/01/16 11:00:56;;;;;;;55.35;23.73;;;3.30;99.90;;;;;;5028440;28;20053;-88
2022/01/16 11:03:25;;;;;;;49.50;23.58;;;3.30;99.90;;;;;;5029829;28;20017;-87
2022/01/16 11:05:51;;;;;;;43.33;21.85;;;3.40;99.90;;;;;;5029397;28;20076;-87
2022/01/16 11:08:20;;;;;;;56.72;24.15;;;3.40;99.90;;;;;;5028286;28;20052;-87
2022/01/16 11:10:51;;;;;;;36.95;21.17;;;3.30;99.90;;;;;;5029599;28;20022;-87
2022/01/16 11:13:19;;;;;;;37.83;22.33;;;3.40;99.90;;;;;;5029812;28;20108;-87
2022/01/16 11:15:51;;;;;;;38.00;23.15;;;3.50;99.90;;;;;;5029405;28;20052;-87
2022/01/16 11:18:20;;;;;;;41.30;22.90;;;3.50;99.90;;;;;;5027925;28;20443;-87
2022/01/16 11:20:56;;;;;;;44.40;22.05;;;3.50;99.90;;;;;;5027802;28;20025;-87
2022/01/16 11:25:59;;;;;;;37.33;20.70;;;3.60;99.90;;;;;;5029554;28;20026;-87
2022/01/16 11:28:26;;;;;;;37.75;21.58;;;3.60;99.90;;;;;;5045897;28;20033;-87
2022/01/16 11:30:54;;;;;;;40.75;21.60;;;3.60;99.90;;;;;;5047972;28;20401;-86
2022/01/16 11:33:22;;;;;;;38.42;21.88;;;3.60;99.90;;;;;;5049883;28;20385;-86
2022/01/16 11:36:00;;;;;;;49.03;23.45;;;3.70;99.90;;;;;;5050961;28;20052;-86
2022/01/16 11:38:39;;;;;;;46.13;23.65;;;3.80;99.90;;;;;;5050392;28;20063;-86
2022/01/16 11:41:14;;;;;;;35.53;21.67;;;3.80;99.90;;;;;;5052722;28;20056;-86
2022/01/16 11:43:41;;;;;;;47.03;22.90;;;3.90;99.90;;;;;;5035520;28;20406;-86
2022/01/16 11:46:11;;;;;;;49.95;22.23;;;4.00;99.90;;;;;;5032968;28;20044;-86
2022/01/16 11:48:44;;;;;;;38.10;21.55;;;3.90;99.90;;;;;;5032851;28;20053;-86
2022/01/16 11:51:32;;;;;;;45.45;22.70;;;4.00;99.90;;;;;;5047691;28;20389;-86
2022/01/16 11:54:19;;;;;;;45.30;25.50;;;4.10;99.90;;;;;;5033380;28;20112;-84
2022/01/16 11:56:45;;;;;;;55.38;29.20;;;4.10;99.90;;;;;;5032346;28;20482;-85
2022/01/16 11:59:30;;;;;;;36.15;17.60;;;4.10;99.90;;;;;;5032384;28;20079;-85
2022/01/16 12:02:09;;;;;;;33.80;19.23;;;4.20;99.90;;;;;;5032419;28;20025;-85
2022/01/16 12:04:36;;;;;;;39.85;20.33;;;4.30;99.90;;;;;;5031174;28;20024;-85
2022/01/16 12:07:21;;;;;;;25.88;15.85;;;4.30;99.90;;;;;;5032273;28;20025;-85
2022/01/16 12:09:59;;;;;;;25.52;15.57;;;4.20;99.90;;;;;;5032309;28;20359;-86
2022/01/16 12:12:26;;;;;;;29.20;16.23;;;4.40;99.90;;;;;;5032214;28;20060;-86
2022/01/16 12:15:18;;;;;;;33.53;17.42;;;4.40;99.90;;;;;;5030865;28;20021;-85
2022/01/16 12:17:51;;;;;;;37.47;19.77;;;4.50;99.90;;;;;;5030836;28;20137;-85
2022/01/16 12:20:27;;;;;;;37.90;22.55;;;4.60;99.90;;;;;;5030724;28;20180;-86
2022/01/16 12:23:04;;;;;;;36.15;18.30;;;4.60;99.90;;;;;;5031582;28;20026;-86
2022/01/16 12:25:43;;;;;;;38.28;20.52;;;4.50;99.90;;;;;;5031949;28;20067;-86
2022/01/16 12:28:08;;;;;;;35.33;21.00;;;4.50;99.90;;;;;;5030743;28;20021;-85
2022/01/16 12:30:55;;;;;;;27.75;16.10;;;4.50;99.90;;;;;;5032126;28;20029;-87
2022/01/16 12:33:42;;;;;;;31.10;18.65;;;4.60;99.90;;;;;;5030844;28;20501;-85
2022/01/16 12:36:14;;;;;;;33.58;17.05;;;4.80;99.90;;;;;;5026289;28;20056;-86
2022/01/16 12:39:11;;;;;;;25.35;15.77;;;4.80;99.90;;;;;;5029575;28;20025;-85
2022/01/16 12:41:40;;;;;;;25.35;15.02;;;4.80;99.90;;;;;;5023266;28;20033;-85
2022/01/16 12:44:17;;;;;;;30.42;16.67;;;4.80;99.90;;;;;;5030963;28;20025;-85
2022/01/16 12:46:51;;;;;;;27.02;15.95;;;5.00;99.90;;;;;;5031923;28;20017;-85
2022/01/16 12:49:19;;;;;;;26.97;16.17;;;5.00;99.90;;;;;;5033366;28;20029;-85
2022/01/16 12:51:47;;;;;;;26.25;16.23;;;5.00;99.90;;;;;;5031368;28;20026;-85
2022/01/16 12:54:18;;;;;;;26.50;16.20;;;5.00;99.90;;;;;;5031356;28;20032;-85
2022/01/16 12:56:47;;;;;;;28.13;17.45;;;5.10;99.90;;;;;;5031240;28;20045;-85
2022/01/16 12:59:21;;;;;;;36.10;17.85;;;5.10;99.90;;;;;;5031177;28;20049;-85
2022/01/16 13:01:57;;;;;;;31.75;17.75;;;5.00;99.90;;;;;;5035500;28;20025;-85
2022/01/16 13:04:43;;;;;;;28.90;17.20;;;4.90;99.90;;;;;;5039426;28;20189;-85
2022/01/16 13:07:16;;;;;;;33.85;19.20;;;5.00;99.90;;;;;;5041767;28;20132;-85
2022/01/16 13:09:42;;;;;;;33.77;21.77;;;4.90;99.90;;;;;;5042080;28;20026;-84
2022/01/16 13:12:12;;;;;;;26.40;16.10;;;4.90;99.90;;;;;;5041507;28;20029;-85
2022/01/16 13:14:42;;;;;;;37.78;18.25;;;5.00;99.90;;;;;;5040840;28;20310;-85
2022/01/16 13:17:10;;;;;;;28.10;16.80;;;4.90;99.90;;;;;;5040959;28;20040;-85